Overview Statistics Trail Chart Weather Telemetry Raw packets
 

This is the latest recevied weather packets stored in our database for station/object WA1TYB-13. If no packets are shown the sender has not sent any weather packets the latest 10 day(s).

<< 92 93 94 95 96 97 98 >>
Time Temp. Humidity Pressure Rain* Wind** Luminosity Snow
1787927254 15° C 64% 1018.8 hPa 0 mm - 80 W/m² -
1787926950 14.44° C 61% 1018.7 hPa 0 mm - 76 W/m² -
1787926644 14.44° C 62% 1018.7 hPa 0 mm - 76 W/m² -
1787926342 13.89° C 65% 1018.9 hPa 0 mm - 66 W/m² -
1787926038 13.89° C 66% 1018.7 hPa 0 mm - 57 W/m² -
1787925732 13.89° C 67% 1018.8 hPa 0 mm - 46 W/m² -
1787925426 13.89° C 68% 1018.9 hPa 0 mm - 45 W/m² -
1787925126 13.33° C 67% 1018.5 hPa 0 mm - 42 W/m² -
1787924824 13.33° C 67% 1018.7 hPa 0 mm - 35 W/m² -
1787924520 13.33° C 68% 1018.9 hPa 0 mm - 30 W/m² -
1787924215 12.78° C 69% 1018.6 hPa 0 mm - 23 W/m² -
1787923915 12.78° C 68% 1018.8 hPa 0 mm - 22 W/m² -
1787923609 12.78° C 67% 1018.8 hPa 0 mm - 21 W/m² -
1787923305 12.78° C 67% 1018.7 hPa 0 mm - 17 W/m² -
1787923004 12.78° C 67% 1018.8 hPa 0 mm - 13 W/m² -
1787922699 12.22° C 67% 1018.9 hPa 0 mm - 10 W/m² -
1787922393 12.22° C 67% 1018.5 hPa 0 mm - 6 W/m² -
1787922091 12.22° C 67% 1018.2 hPa 0 mm - 4 W/m² -
1787921785 12.22° C 67% 1018.4 hPa 0 mm - 3 W/m² -
1787921485 12.78° C 66% 1018.6 hPa 0 mm - 1 W/m² -
1787921179 12.22° C 65% 1018.7 hPa 0 mm - 0 W/m² -
1787920875 12.22° C 65% 1018.5 hPa 0 mm - 0 W/m² -
1787920569 12.78° C 65% 1018.5 hPa 0 mm - 0 W/m² -
1787920264 13.33° C 63% 1018.4 hPa 0 mm - 0 W/m² -
1787919956 13.33° C 61% 1018.4 hPa 0 mm - 0 W/m² -

* Rain latest hour (hover to see other rain measurements)
** Current wind speed in m/s (hover to see current wind gust speed)